createdAt,value
2017-08-30T00:00:20.625Z,9.20
2017-08-30T00:00:53.199Z,10.30
2017-08-30T00:01:26.497Z,9.98
2017-08-30T00:01:59.035Z,9.57
2017-08-30T00:02:31.556Z,8.65
2017-08-30T00:03:04.854Z,10.15
2017-08-30T00:03:37.421Z,10.05
2017-08-30T00:04:09.948Z,9.40
2017-08-30T00:04:42.511Z,9.40
2017-08-30T00:05:15.074Z,9.07
2017-08-30T00:05:47.617Z,9.13
2017-08-30T00:06:20.960Z,10.25
2017-08-30T00:06:53.494Z,10.60
2017-08-30T00:07:26.044Z,9.98
2017-08-30T00:07:58.592Z,9.65
2017-08-30T00:08:31.146Z,10.50
2017-08-30T00:09:03.693Z,10.38
2017-08-30T00:09:36.252Z,9.57
2017-08-30T00:10:08.771Z,9.60
2017-08-30T00:10:41.294Z,9.50
2017-08-30T00:11:13.812Z,9.68
2017-08-30T00:11:47.112Z,10.00
2017-08-30T00:12:19.635Z,9.85
2017-08-30T00:12:52.159Z,9.07
2017-08-30T00:13:24.703Z,9.63
2017-08-30T00:13:57.251Z,9.77
2017-08-30T00:14:30.568Z,10.30
2017-08-30T00:15:03.074Z,10.55
2017-08-30T00:15:35.629Z,10.18
2017-08-30T00:16:08.152Z,10.43
2017-08-30T00:16:40.681Z,9.18
2017-08-30T00:17:13.292Z,10.07
2017-08-30T00:17:45.819Z,10.15
2017-08-30T00:18:18.345Z,9.60
2017-08-30T00:18:50.883Z,9.77
2017-08-30T00:19:23.415Z,9.70
2017-08-30T00:19:56.704Z,10.18
2017-08-30T00:20:29.225Z,10.65
2017-08-30T00:21:02.538Z,10.80
2017-08-30T00:21:35.074Z,10.93
2017-08-30T00:22:07.603Z,10.07
2017-08-30T00:22:40.694Z,9.80
2017-08-30T00:23:13.212Z,10.57
2017-08-30T00:23:45.744Z,10.10
2017-08-30T00:24:30.303Z,10.57
2017-08-30T00:25:14.739Z,11.00
2017-08-30T00:25:59.088Z,11.12
2017-08-30T00:26:31.628Z,10.77
2017-08-30T00:27:04.151Z,10.82
2017-08-30T00:27:36.701Z,10.40
2017-08-30T00:28:10.223Z,10.77
2017-08-30T00:28:42.772Z,10.27
2017-08-30T00:29:15.281Z,10.70
2017-08-30T00:29:47.806Z,10.40
2017-08-30T00:30:20.336Z,10.32
2017-08-30T00:30:52.870Z,9.93
2017-08-30T00:31:25.421Z,10.68
2017-08-30T00:31:57.982Z,11.23
2017-08-30T00:32:31.280Z,10.32
2017-08-30T00:33:03.818Z,10.82
2017-08-30T00:33:36.391Z,11.27
2017-08-30T00:34:08.911Z,11.23
2017-08-30T00:34:41.438Z,10.60
2017-08-30T00:35:13.976Z,9.98
2017-08-30T00:35:46.516Z,10.95
2017-08-30T00:36:19.815Z,10.82
2017-08-30T00:36:52.357Z,10.25
2017-08-30T00:37:24.865Z,10.70
2017-08-30T00:37:58.188Z,10.77
2017-08-30T00:38:30.708Z,10.48
2017-08-30T00:39:03.249Z,10.57
2017-08-30T00:39:35.834Z,10.93
2017-08-30T00:40:08.959Z,11.23
2017-08-30T00:40:41.474Z,11.55
2017-08-30T00:41:14.018Z,10.50
2017-08-30T00:41:46.556Z,10.13
2017-08-30T00:42:19.836Z,10.25
2017-08-30T00:42:52.367Z,10.32
2017-08-30T00:43:25.657Z,10.80
2017-08-30T00:43:58.189Z,11.55
2017-08-30T00:44:30.729Z,10.32
2017-08-30T00:45:03.276Z,10.90
2017-08-30T00:45:35.791Z,10.20
2017-08-30T00:46:08.293Z,10.80
2017-08-30T00:46:40.831Z,10.57
2017-08-30T00:47:13.370Z,10.60
2017-08-30T00:47:45.919Z,11.60
2017-08-30T00:48:18.445Z,10.88
2017-08-30T00:48:50.974Z,11.02
2017-08-30T00:49:24.253Z,11.07
2017-08-30T00:49:56.794Z,11.00
2017-08-30T00:50:29.312Z,11.43
2017-08-30T00:51:01.840Z,10.68
2017-08-30T00:51:34.381Z,11.32
2017-08-30T00:52:06.915Z,11.60
2017-08-30T00:52:39.437Z,11.30
2017-08-30T00:53:11.961Z,11.45
2017-08-30T00:53:44.518Z,10.07
2017-08-30T00:54:17.034Z,10.45
2017-08-30T00:54:49.570Z,11.27
2017-08-30T00:55:22.879Z,11.20
2017-08-30T00:55:55.400Z,11.10
2017-08-30T00:56:27.943Z,10.65
2017-08-30T00:57:00.474Z,11.27
2017-08-30T00:57:33.238Z,10.73
2017-08-30T00:58:05.748Z,11.18
2017-08-30T00:58:38.293Z,10.73
2017-08-30T00:59:10.810Z,9.90
2017-08-30T00:59:43.332Z,11.65
2017-08-30T01:00:15.855Z,11.65
2017-08-30T01:00:49.266Z,11.15
2017-08-30T01:01:21.775Z,10.32
2017-08-30T01:01:54.343Z,10.57
2017-08-30T01:02:26.889Z,11.00
2017-08-30T01:02:59.450Z,10.60
2017-08-30T01:03:31.962Z,10.93
2017-08-30T01:04:04.483Z,10.27
2017-08-30T01:04:37.792Z,11.65
2017-08-30T01:05:10.335Z,11.27
2017-08-30T01:05:42.857Z,11.57
2017-08-30T01:06:15.950Z,11.60
2017-08-30T01:06:48.478Z,10.65
2017-08-30T01:07:21.004Z,11.12
2017-08-30T01:07:53.543Z,10.90
2017-08-30T01:08:26.076Z,11.30
2017-08-30T01:08:58.620Z,11.32
2017-08-30T01:09:31.922Z,11.45
2017-08-30T01:10:04.443Z,10.65
2017-08-30T01:10:36.987Z,11.40
2017-08-30T01:11:09.506Z,12.43
2017-08-30T01:11:42.823Z,11.30
2017-08-30T01:12:15.354Z,11.25
2017-08-30T01:12:47.888Z,12.00
2017-08-30T01:13:20.421Z,11.27
2017-08-30T01:13:52.959Z,10.60
2017-08-30T01:14:25.497Z,11.02
2017-08-30T01:14:58.795Z,11.07
2017-08-30T01:15:31.313Z,11.12
2017-08-30T01:16:03.863Z,11.38
2017-08-30T01:17:12.537Z,10.55
2017-08-30T01:17:45.053Z,10.82
2017-08-30T01:18:17.608Z,10.95
2017-08-30T01:18:50.141Z,10.43
2017-08-30T01:19:22.690Z,11.23
2017-08-30T01:19:55.209Z,11.30
2017-08-30T01:20:27.750Z,10.95
2017-08-30T01:21:00.273Z,10.50
2017-08-30T01:21:32.794Z,10.80
2017-08-30T01:22:05.346Z,10.82
2017-08-30T01:22:37.901Z,10.90
2017-08-30T01:23:10.440Z,10.50
2017-08-30T01:23:42.956Z,11.12
2017-08-30T01:24:16.288Z,10.50
2017-08-30T01:24:48.800Z,10.43
2017-08-30T01:25:21.323Z,11.60
2017-08-30T01:25:53.870Z,10.80
2017-08-30T01:26:27.293Z,10.93
2017-08-30T01:26:59.837Z,10.95
2017-08-30T01:27:32.395Z,10.35
2017-08-30T01:28:04.946Z,11.07
2017-08-30T01:28:37.456Z,11.45
2017-08-30T01:29:09.987Z,11.05
2017-08-30T01:29:42.512Z,10.90
2017-08-30T01:30:15.020Z,10.23
2017-08-30T01:30:47.549Z,10.63
2017-08-30T01:31:20.086Z,11.73
2017-08-30T01:31:52.621Z,10.27
2017-08-30T01:32:25.174Z,11.15
2017-08-30T01:32:57.719Z,10.98
2017-08-30T01:33:30.272Z,11.15
2017-08-30T01:34:02.818Z,11.00
2017-08-30T01:34:35.340Z,11.23
2017-08-30T01:35:07.877Z,10.48
2017-08-30T01:35:40.409Z,11.68
2017-08-30T01:36:12.948Z,11.00
2017-08-30T01:36:45.461Z,11.98
2017-08-30T01:37:17.995Z,11.35
2017-08-30T01:37:50.525Z,10.75
2017-08-30T01:38:23.061Z,10.65
2017-08-30T01:38:55.586Z,11.40
2017-08-30T01:39:28.099Z,12.00
2017-08-30T01:40:00.617Z,11.35
2017-08-30T01:40:33.126Z,11.00
2017-08-30T01:41:05.659Z,11.52
2017-08-30T01:41:38.198Z,11.50
2017-08-30T01:42:10.734Z,10.55
2017-08-30T01:42:43.269Z,11.98
2017-08-30T01:43:16.549Z,10.95
2017-08-30T01:43:49.059Z,10.75
2017-08-30T01:44:21.622Z,11.05
2017-08-30T01:44:54.148Z,11.65
2017-08-30T01:45:26.664Z,11.65
2017-08-30T01:45:59.197Z,11.10
2017-08-30T01:46:31.702Z,11.05
2017-08-30T01:47:04.234Z,12.15
2017-08-30T01:47:36.789Z,11.63
2017-08-30T01:48:09.337Z,11.30
2017-08-30T01:48:41.866Z,11.90
2017-08-30T01:49:14.416Z,11.50
2017-08-30T01:49:46.958Z,11.70
2017-08-30T01:50:19.495Z,11.05
2017-08-30T01:50:52.809Z,11.10
2017-08-30T01:51:25.339Z,11.70
2017-08-30T01:51:57.859Z,11.75
2017-08-30T01:52:30.396Z,11.12
2017-08-30T01:53:03.686Z,12.60
2017-08-30T01:53:36.210Z,12.40
2017-08-30T01:54:08.725Z,12.40
2017-08-30T01:54:41.245Z,12.27
2017-08-30T01:55:13.772Z,10.80
2017-08-30T01:55:46.323Z,11.80
2017-08-30T01:56:18.840Z,11.90
2017-08-30T01:56:51.368Z,12.00
2017-08-30T01:57:23.888Z,11.55
2017-08-30T01:57:56.450Z,12.43
2017-08-30T01:58:28.971Z,11.65
2017-08-30T01:59:01.517Z,10.80
2017-08-30T01:59:34.060Z,12.30
2017-08-30T02:00:06.587Z,12.50
2017-08-30T02:00:39.140Z,11.32
2017-08-30T02:01:11.690Z,11.15
2017-08-30T02:01:44.233Z,11.00
2017-08-30T02:02:16.770Z,11.80
2017-08-30T02:02:49.289Z,11.93
2017-08-30T02:03:21.811Z,12.40
2017-08-30T02:03:54.343Z,12.57
2017-08-30T02:04:26.860Z,12.68
2017-08-30T02:04:59.402Z,11.93
2017-08-30T02:05:31.921Z,11.95
2017-08-30T02:06:04.462Z,12.18
2017-08-30T02:06:36.977Z,11.70
2017-08-30T02:07:09.500Z,11.85
2017-08-30T02:07:42.027Z,11.88
2017-08-30T02:08:14.553Z,12.25
2017-08-30T02:08:47.086Z,12.35
2017-08-30T02:09:19.611Z,11.40
2017-08-30T02:09:52.148Z,12.27
2017-08-30T02:10:24.668Z,12.45
2017-08-30T02:10:57.182Z,12.90
2017-08-30T02:11:29.725Z,12.45
2017-08-30T02:12:02.257Z,12.15
2017-08-30T02:12:34.778Z,11.25
2017-08-30T02:13:07.307Z,11.40
2017-08-30T02:13:39.848Z,12.55
2017-08-30T02:14:12.361Z,12.20
2017-08-30T02:14:45.885Z,11.98
2017-08-30T02:15:18.422Z,11.80
2017-08-30T02:15:50.949Z,11.25
2017-08-30T02:16:23.479Z,12.65
2017-08-30T02:16:56.036Z,11.68
2017-08-30T02:17:28.573Z,12.52
2017-08-30T02:18:01.096Z,12.25
2017-08-30T02:18:33.625Z,12.20
2017-08-30T02:19:06.149Z,12.82
2017-08-30T02:19:38.685Z,12.30
2017-08-30T02:20:11.211Z,12.10
2017-08-30T02:20:43.744Z,11.88
2017-08-30T02:21:16.280Z,11.80
2017-08-30T02:21:48.908Z,12.20
2017-08-30T02:22:21.448Z,11.95
2017-08-30T02:22:53.989Z,12.10
2017-08-30T02:23:26.518Z,12.15
2017-08-30T02:23:59.053Z,11.32
2017-08-30T02:24:31.598Z,12.65
2017-08-30T02:25:04.128Z,13.00
2017-08-30T02:25:36.662Z,11.88
2017-08-30T02:26:09.975Z,12.20
2017-08-30T02:26:42.511Z,12.05
2017-08-30T02:27:15.026Z,12.02
2017-08-30T02:27:47.571Z,12.90
2017-08-30T02:28:20.103Z,12.27
2017-08-30T02:28:52.639Z,12.45
2017-08-30T02:29:25.237Z,13.15
2017-08-30T02:29:57.763Z,11.70
2017-08-30T02:30:30.296Z,12.25
2017-08-30T02:31:02.841Z,12.18
2017-08-30T02:31:35.349Z,12.60
2017-08-30T02:32:07.872Z,12.40
2017-08-30T02:32:40.397Z,12.45
2017-08-30T02:33:12.943Z,12.20
2017-08-30T02:33:45.486Z,12.63
2017-08-30T02:34:18.052Z,13.07
2017-08-30T02:34:50.618Z,12.30
2017-08-30T02:35:23.258Z,12.80
2017-08-30T02:35:55.778Z,12.68
2017-08-30T02:36:28.320Z,12.20
2017-08-30T02:37:00.847Z,12.70
2017-08-30T02:37:33.389Z,13.02
2017-08-30T02:38:05.950Z,13.13
2017-08-30T02:38:38.512Z,13.52
2017-08-30T02:39:11.049Z,12.77
2017-08-30T02:39:43.582Z,12.93
2017-08-30T02:40:16.089Z,12.90
2017-08-30T02:40:48.621Z,13.30
2017-08-30T02:41:21.143Z,12.52
2017-08-30T02:41:53.674Z,14.50
2017-08-30T02:42:26.192Z,12.52
2017-08-30T02:42:58.761Z,12.05
2017-08-30T02:43:31.304Z,12.35
2017-08-30T02:44:03.833Z,12.70
2017-08-30T02:44:36.382Z,12.75
2017-08-30T02:45:08.906Z,13.57
2017-08-30T02:45:41.432Z,12.57
2017-08-30T02:46:13.971Z,13.20
2017-08-30T02:46:46.493Z,13.68
2017-08-30T02:47:19.025Z,12.20
2017-08-30T02:47:51.568Z,13.57
2017-08-30T02:48:24.087Z,13.40
2017-08-30T02:48:56.614Z,13.35
2017-08-30T02:49:29.179Z,13.55
2017-08-30T02:50:01.753Z,13.60
2017-08-30T02:50:34.391Z,12.90
2017-08-30T02:51:06.944Z,13.73
2017-08-30T02:51:39.476Z,13.10
2017-08-30T02:52:12.595Z,13.25
2017-08-30T02:52:45.161Z,14.00
2017-08-30T02:53:17.719Z,14.02
2017-08-30T02:53:50.870Z,12.63
2017-08-30T02:54:23.405Z,12.95
2017-08-30T02:54:55.940Z,13.32
2017-08-30T02:55:28.470Z,12.50
2017-08-30T02:56:01.003Z,12.77
2017-08-30T02:56:33.560Z,13.93
2017-08-30T02:57:06.084Z,13.98
2017-08-30T02:57:38.611Z,13.07
2017-08-30T02:58:11.136Z,13.70
2017-08-30T02:58:43.664Z,12.85
2017-08-30T02:59:16.184Z,13.40
2017-08-30T02:59:49.485Z,13.10
2017-08-30T03:00:22.044Z,13.73
2017-08-30T03:00:54.562Z,14.30
2017-08-30T03:01:27.079Z,14.43
2017-08-30T03:01:59.609Z,13.73
2017-08-30T03:02:32.128Z,13.13
2017-08-30T03:03:04.657Z,13.45
2017-08-30T03:03:37.208Z,13.57
2017-08-30T03:04:09.753Z,14.77
2017-08-30T03:04:42.285Z,13.50
2017-08-30T03:05:14.833Z,13.43
2017-08-30T03:05:47.389Z,13.88
2017-08-30T03:06:19.903Z,13.20
2017-08-30T03:06:52.411Z,13.55
2017-08-30T03:07:24.943Z,13.75
2017-08-30T03:07:57.460Z,14.02
2017-08-30T03:08:29.989Z,14.30
2017-08-30T03:09:02.508Z,13.32
2017-08-30T03:09:35.070Z,14.65
2017-08-30T03:10:07.596Z,13.80
2017-08-30T03:10:40.143Z,13.43
2017-08-30T03:11:13.460Z,14.27
2017-08-30T03:11:45.982Z,12.85
2017-08-30T03:12:18.507Z,13.10
2017-08-30T03:12:51.032Z,13.68
2017-08-30T03:13:23.554Z,12.93
2017-08-30T03:13:56.095Z,12.80
2017-08-30T03:14:28.653Z,14.63
2017-08-30T03:15:01.167Z,13.95
2017-08-30T03:15:33.700Z,13.45
2017-08-30T03:16:06.264Z,13.20
2017-08-30T03:16:38.833Z,13.40
2017-08-30T03:17:11.352Z,12.90
2017-08-30T03:17:43.888Z,14.85
2017-08-30T03:18:16.465Z,13.00
2017-08-30T03:18:48.992Z,14.05
2017-08-30T03:19:21.525Z,12.68
2017-08-30T03:19:54.058Z,13.73
2017-08-30T03:20:26.579Z,13.20
2017-08-30T03:20:59.140Z,13.23
2017-08-30T03:21:31.657Z,12.95
2017-08-30T03:22:04.201Z,13.35
2017-08-30T03:22:36.723Z,13.73
2017-08-30T03:23:09.243Z,13.27
2017-08-30T03:23:41.773Z,13.70
2017-08-30T03:24:14.303Z,13.73
2017-08-30T03:24:46.848Z,12.77
2017-08-30T03:25:19.366Z,13.13
2017-08-30T03:25:51.931Z,13.45
2017-08-30T03:26:24.470Z,12.88
2017-08-30T03:26:56.989Z,13.90
2017-08-30T03:27:29.528Z,13.02
2017-08-30T03:28:02.049Z,14.10
2017-08-30T03:28:34.573Z,13.88
2017-08-30T03:29:07.102Z,13.30
2017-08-30T03:29:39.613Z,13.93
2017-08-30T03:30:12.901Z,12.55
2017-08-30T03:30:45.434Z,13.85
2017-08-30T03:31:17.966Z,14.50
2017-08-30T03:31:50.502Z,13.15
2017-08-30T03:32:23.019Z,13.52
2017-08-30T03:32:55.560Z,13.60
2017-08-30T03:33:28.122Z,13.18
2017-08-30T03:34:00.655Z,13.95
2017-08-30T03:34:33.200Z,14.87
2017-08-30T03:35:05.754Z,13.70
2017-08-30T03:35:38.280Z,14.05
2017-08-30T03:36:10.797Z,13.62
2017-08-30T03:36:43.322Z,14.45
2017-08-30T03:37:15.864Z,13.62
2017-08-30T03:37:48.409Z,14.57
2017-08-30T03:38:22.344Z,13.60
2017-08-30T03:38:54.904Z,13.35
2017-08-30T03:39:27.433Z,13.65
2017-08-30T03:39:59.958Z,14.18
2017-08-30T03:40:32.471Z,14.73
2017-08-30T03:41:05.008Z,13.68
2017-08-30T03:41:37.517Z,13.80
2017-08-30T03:42:10.044Z,14.10
2017-08-30T03:42:42.563Z,14.13
2017-08-30T03:43:15.073Z,14.35
2017-08-30T03:43:47.612Z,13.23
2017-08-30T03:44:20.787Z,13.62
2017-08-30T03:44:53.303Z,14.00
2017-08-30T03:45:25.830Z,14.65
2017-08-30T03:45:58.381Z,13.95
2017-08-30T03:46:31.020Z,13.65
2017-08-30T03:47:03.601Z,13.50
2017-08-30T03:47:36.123Z,14.15
2017-08-30T03:48:08.674Z,14.23
2017-08-30T03:48:41.196Z,14.18
2017-08-30T03:49:13.750Z,14.52
2017-08-30T03:49:46.271Z,13.95
2017-08-30T03:50:18.794Z,13.62
2017-08-30T03:50:51.576Z,14.50
2017-08-30T03:51:24.109Z,13.70
2017-08-30T03:51:56.668Z,14.70
2017-08-30T03:52:29.202Z,14.43
2017-08-30T03:53:01.755Z,14.18
2017-08-30T03:53:34.275Z,14.80
2017-08-30T03:54:06.829Z,15.75
2017-08-30T03:54:39.435Z,15.25
2017-08-30T03:55:11.999Z,14.95
2017-08-30T03:55:44.532Z,13.88
2017-08-30T03:56:17.049Z,14.87
2017-08-30T03:56:49.603Z,14.50
2017-08-30T03:57:22.136Z,14.38
2017-08-30T03:57:54.651Z,15.43
2017-08-30T03:58:27.171Z,16.25
2017-08-30T03:58:59.712Z,14.18
2017-08-30T03:59:33.022Z,15.25
2017-08-30T04:00:05.599Z,14.52
2017-08-30T04:00:38.167Z,14.43
2017-08-30T04:01:10.696Z,15.07
2017-08-30T04:01:44.024Z,15.30
2017-08-30T04:02:16.568Z,15.02
2017-08-30T04:02:49.102Z,14.30
2017-08-30T04:03:21.660Z,14.95
2017-08-30T04:03:54.175Z,15.35
2017-08-30T04:04:26.715Z,14.57
2017-08-30T04:04:59.236Z,15.07
2017-08-30T04:05:31.790Z,14.65
2017-08-30T04:06:04.325Z,15.23
2017-08-30T04:06:36.842Z,15.30
2017-08-30T04:07:09.377Z,15.23
2017-08-30T04:07:41.896Z,14.73
2017-08-30T04:08:14.412Z,15.27
2017-08-30T04:08:46.925Z,14.95
2017-08-30T04:09:19.448Z,15.50
2017-08-30T04:09:51.982Z,14.57
2017-08-30T04:10:24.506Z,14.68
2017-08-30T04:10:57.062Z,14.27
2017-08-30T04:11:29.584Z,15.27
2017-08-30T04:12:02.143Z,15.30
2017-08-30T04:12:34.651Z,15.10
2017-08-30T04:13:07.156Z,15.75
2017-08-30T04:13:39.682Z,15.55
2017-08-30T04:14:12.240Z,15.63
2017-08-30T04:14:44.752Z,15.93
2017-08-30T04:15:17.329Z,14.87
2017-08-30T04:15:49.873Z,15.43
2017-08-30T04:16:22.598Z,15.00
2017-08-30T04:16:55.121Z,15.43
2017-08-30T04:17:27.666Z,15.30
2017-08-30T04:18:00.205Z,15.30
2017-08-30T04:18:32.730Z,14.20
2017-08-30T04:19:05.252Z,14.38
2017-08-30T04:19:37.768Z,14.40
2017-08-30T04:20:10.318Z,14.35
2017-08-30T04:20:42.836Z,13.90
2017-08-30T04:21:15.482Z,15.23
2017-08-30T04:21:48.237Z,14.50
2017-08-30T04:22:20.806Z,14.87
2017-08-30T04:22:53.344Z,14.70
2017-08-30T04:23:25.903Z,14.02
2017-08-30T04:23:58.423Z,14.60
2017-08-30T04:24:30.941Z,16.08
2017-08-30T04:25:03.469Z,15.20
2017-08-30T04:25:35.997Z,14.95
2017-08-30T04:26:08.533Z,14.13
2017-08-30T04:26:41.062Z,15.07
2017-08-30T04:27:13.686Z,14.52
2017-08-30T04:27:46.214Z,14.52
2017-08-30T04:28:18.793Z,14.10
2017-08-30T04:28:51.325Z,13.38
2017-08-30T04:29:23.852Z,14.90
2017-08-30T04:29:56.381Z,15.50
2017-08-30T04:30:28.906Z,14.23
2017-08-30T04:31:01.414Z,14.07
2017-08-30T04:31:33.957Z,14.35
2017-08-30T04:32:06.492Z,14.98
2017-08-30T04:32:39.062Z,14.80
2017-08-30T04:33:11.589Z,15.15
2017-08-30T04:33:44.105Z,14.73
2017-08-30T04:34:16.638Z,14.45
2017-08-30T04:34:49.168Z,14.00
2017-08-30T04:35:21.691Z,14.00
2017-08-30T04:35:54.222Z,15.10
2017-08-30T04:36:26.723Z,14.77
2017-08-30T04:36:59.247Z,15.65
2017-08-30T04:37:31.789Z,15.07
2017-08-30T04:38:04.357Z,15.07
2017-08-30T04:38:36.916Z,15.40
2017-08-30T04:39:09.445Z,14.85
2017-08-30T04:45:44.383Z,15.57
2017-08-30T04:46:16.928Z,15.98
2017-08-30T04:46:49.454Z,15.18
2017-08-30T04:47:21.988Z,15.43
2017-08-30T04:47:54.542Z,16.75
2017-08-30T04:48:27.063Z,15.38
2017-08-30T04:48:59.587Z,16.12
2017-08-30T04:49:32.135Z,16.10
2017-08-30T04:50:04.681Z,15.27
2017-08-30T04:50:37.212Z,15.20
2017-08-30T04:51:09.766Z,15.45
2017-08-30T04:51:42.297Z,15.95
2017-08-30T04:52:14.844Z,15.95
2017-08-30T04:52:47.383Z,14.95
2017-08-30T04:53:19.920Z,16.23
2017-08-30T04:53:52.438Z,15.20
2017-08-30T04:54:24.964Z,15.50
2017-08-30T04:54:57.505Z,15.82
2017-08-30T04:55:30.047Z,15.57
2017-08-30T04:56:02.589Z,16.20
2017-08-30T04:56:35.892Z,16.20
2017-08-30T04:57:08.430Z,16.05
2017-08-30T04:57:40.962Z,17.05
2017-08-30T04:58:13.493Z,16.15
2017-08-30T04:58:46.030Z,15.40
2017-08-30T04:59:18.584Z,16.08
2017-08-30T04:59:51.104Z,16.12
2017-08-30T05:00:23.670Z,16.35
2017-08-30T05:00:56.198Z,15.48
2017-08-30T05:01:28.733Z,14.50
2017-08-30T05:02:01.271Z,15.55
2017-08-30T05:02:33.800Z,16.45
2017-08-30T05:03:06.347Z,15.63
2017-08-30T05:03:38.890Z,15.77
2017-08-30T05:04:11.472Z,15.65
2017-08-30T05:04:44.031Z,15.63
2017-08-30T05:05:16.581Z,15.15
2017-08-30T05:05:49.114Z,15.52
2017-08-30T05:06:21.639Z,14.90
2017-08-30T05:06:54.177Z,15.05
2017-08-30T05:07:26.725Z,16.30
2017-08-30T05:07:59.260Z,15.20
2017-08-30T05:08:31.776Z,15.35
2017-08-30T05:09:04.300Z,15.82
2017-08-30T05:09:36.829Z,15.18
2017-08-30T05:10:09.364Z,14.38
2017-08-30T05:10:41.867Z,14.30
2017-08-30T05:11:14.408Z,15.23
2017-08-30T05:15:48.947Z,14.73
2017-08-30T05:16:21.491Z,15.60
2017-08-30T05:16:53.996Z,14.15
2017-08-30T05:17:26.533Z,14.95
2017-08-30T05:17:59.115Z,14.77
2017-08-30T05:18:31.641Z,14.65
2017-08-30T05:19:04.164Z,15.38
2017-08-30T05:19:36.755Z,15.18
2017-08-30T05:20:09.278Z,15.68
2017-08-30T05:20:41.798Z,15.63
2017-08-30T05:21:14.363Z,14.70
2017-08-30T05:21:46.908Z,15.18
2017-08-30T05:22:19.466Z,15.25
2017-08-30T05:22:51.995Z,15.55
2017-08-30T05:23:24.536Z,16.10
2017-08-30T05:23:57.132Z,14.40
2017-08-30T05:24:29.662Z,14.23
2017-08-30T05:25:02.215Z,14.73
2017-08-30T05:25:35.570Z,15.18
2017-08-30T05:26:08.086Z,15.60
2017-08-30T05:26:40.629Z,16.15
2017-08-30T05:27:13.169Z,15.95
2017-08-30T05:27:45.689Z,16.42
2017-08-30T05:28:18.215Z,15.32
2017-08-30T05:28:50.747Z,16.65
2017-08-30T05:29:23.301Z,15.55
2017-08-30T05:29:55.832Z,15.15
2017-08-30T05:30:28.389Z,15.13
2017-08-30T05:31:00.924Z,15.05
2017-08-30T05:31:33.447Z,15.50
2017-08-30T05:32:05.988Z,15.60
2017-08-30T05:32:38.629Z,14.95
2017-08-30T05:33:11.175Z,14.65
2017-08-30T05:33:43.721Z,15.40
2017-08-30T05:34:16.243Z,14.77
2017-08-30T05:34:48.945Z,14.85
2017-08-30T05:35:21.509Z,15.13
2017-08-30T05:35:54.039Z,14.35
2017-08-30T05:36:26.664Z,14.68
2017-08-30T05:36:59.186Z,15.25
2017-08-30T05:37:31.723Z,14.90
2017-08-30T05:38:04.287Z,14.63
2017-08-30T05:38:37.693Z,13.70
2017-08-30T05:39:10.245Z,13.15
2017-08-30T05:39:42.785Z,13.52
2017-08-30T05:40:15.354Z,13.68
2017-08-30T05:40:47.875Z,13.75
2017-08-30T05:41:20.440Z,13.15
2017-08-30T05:41:53.007Z,13.95
2017-08-30T05:42:25.557Z,12.93
2017-08-30T05:42:58.113Z,15.20
2017-08-30T05:43:31.184Z,14.38
2017-08-30T05:44:03.708Z,14.87
2017-08-30T05:44:37.206Z,16.05
2017-08-30T05:45:09.774Z,12.88
2017-08-30T05:45:43.094Z,13.32
2017-08-30T05:46:15.663Z,13.77
2017-08-30T05:46:48.209Z,13.30
2017-08-30T05:47:20.733Z,14.05
2017-08-30T05:47:53.264Z,15.65
2017-08-30T05:48:25.794Z,14.30
2017-08-30T05:48:58.351Z,12.80
2017-08-30T05:49:30.928Z,13.73
2017-08-30T05:50:03.521Z,12.50
2017-08-30T05:50:36.156Z,13.00
2017-08-30T05:51:08.704Z,12.77
2017-08-30T05:51:41.253Z,13.80
2017-08-30T05:52:13.792Z,12.48
2017-08-30T05:52:46.313Z,12.13
2017-08-30T05:53:18.899Z,12.82
2017-08-30T05:53:51.435Z,13.10
2017-08-30T05:54:23.996Z,13.00
2017-08-30T05:54:56.519Z,14.07
2017-08-30T05:55:29.097Z,12.65
2017-08-30T05:56:01.676Z,12.60
2017-08-30T05:56:34.202Z,12.13
2017-08-30T05:57:06.734Z,12.32
2017-08-30T05:57:39.270Z,12.30
2017-08-30T05:58:11.801Z,12.05
2017-08-30T05:58:44.340Z,13.13
2017-08-30T05:59:16.902Z,11.45
2017-08-30T05:59:49.451Z,12.25
2017-08-30T06:00:21.950Z,12.00
2017-08-30T06:00:54.483Z,12.82
2017-08-30T06:01:27.018Z,12.07
2017-08-30T06:01:59.561Z,12.27
2017-08-30T06:02:32.097Z,12.52
2017-08-30T06:03:04.630Z,11.95
2017-08-30T06:03:37.163Z,12.15
2017-08-30T06:04:09.696Z,12.27
2017-08-30T06:04:42.225Z,12.60
2017-08-30T06:05:15.293Z,12.48
2017-08-30T06:05:47.834Z,11.55
2017-08-30T06:06:20.389Z,12.32
2017-08-30T06:06:52.949Z,12.50
2017-08-30T06:07:25.468Z,12.60
2017-08-30T06:07:58.813Z,11.73
2017-08-30T06:08:31.338Z,12.10
2017-08-30T06:09:03.901Z,11.45
2017-08-30T06:09:36.481Z,12.68
2017-08-30T06:10:09.785Z,11.85
2017-08-30T06:10:42.342Z,12.00
2017-08-30T06:11:14.871Z,11.15
2017-08-30T06:11:47.401Z,11.52
2017-08-30T06:12:19.940Z,11.75
2017-08-30T06:12:52.573Z,11.95
2017-08-30T06:13:25.158Z,11.07
2017-08-30T06:13:57.729Z,10.85
2017-08-30T06:14:30.301Z,11.45
2017-08-30T06:15:02.865Z,11.00
2017-08-30T06:15:35.403Z,11.75
2017-08-30T06:16:07.983Z,11.82
2017-08-30T06:16:40.707Z,11.43
2017-08-30T06:17:13.259Z,12.15
2017-08-30T06:17:45.785Z,11.95
2017-08-30T06:18:18.343Z,12.13
2017-08-30T06:18:50.933Z,11.98
2017-08-30T06:19:23.527Z,11.43
2017-08-30T06:19:56.065Z,11.00
2017-08-30T06:20:28.591Z,12.15
2017-08-30T06:21:01.110Z,11.60
2017-08-30T06:21:33.661Z,11.82
2017-08-30T06:22:06.236Z,12.10
2017-08-30T06:22:38.812Z,11.55
2017-08-30T06:23:11.354Z,12.65
2017-08-30T06:23:43.877Z,11.27
2017-08-30T06:24:16.394Z,11.35
2017-08-30T06:24:48.912Z,11.20
2017-08-30T06:25:21.439Z,10.95
2017-08-30T06:25:53.939Z,11.45
2017-08-30T06:26:26.479Z,11.27
2017-08-30T06:26:59.026Z,11.15
2017-08-30T06:27:31.674Z,11.45
2017-08-30T06:28:04.186Z,12.20
2017-08-30T06:28:36.769Z,11.07
2017-08-30T06:29:09.317Z,11.35
2017-08-30T06:29:41.872Z,11.50
2017-08-30T06:30:14.405Z,12.60
2017-08-30T06:30:46.950Z,11.68
2017-08-30T06:31:19.484Z,11.90
2017-08-30T06:31:52.098Z,10.82
2017-08-30T06:32:24.661Z,10.35
2017-08-30T06:32:57.189Z,10.55
2017-08-30T06:33:29.740Z,10.15
2017-08-30T06:34:02.264Z,11.32
2017-08-30T06:34:34.815Z,12.52
2017-08-30T06:35:07.376Z,11.05
2017-08-30T06:35:39.903Z,11.18
2017-08-30T06:36:12.510Z,11.00
2017-08-30T06:36:45.063Z,11.50
2017-08-30T06:37:17.638Z,11.45
2017-08-30T06:37:50.189Z,11.15
2017-08-30T06:38:22.737Z,12.18
2017-08-30T06:38:55.268Z,10.90
2017-08-30T06:39:27.791Z,11.38
2017-08-30T06:40:00.337Z,10.60
2017-08-30T06:40:32.860Z,11.98
2017-08-30T06:41:05.413Z,11.98
2017-08-30T06:41:37.945Z,10.98
2017-08-30T06:42:10.475Z,10.68
2017-08-30T06:42:42.999Z,11.23
2017-08-30T06:43:15.620Z,11.55
2017-08-30T06:43:48.205Z,11.43
2017-08-30T06:44:20.740Z,10.57
2017-08-30T06:44:53.269Z,11.98
2017-08-30T06:45:25.825Z,11.00
2017-08-30T06:45:58.930Z,11.15
2017-08-30T06:46:31.473Z,11.88
2017-08-30T06:47:04.040Z,10.85
2017-08-30T06:47:36.647Z,10.98
2017-08-30T06:48:09.757Z,11.10
2017-08-30T06:48:42.290Z,11.35
2017-08-30T06:49:14.826Z,11.18
2017-08-30T06:49:47.354Z,11.07
2017-08-30T06:50:19.939Z,11.65
2017-08-30T06:50:52.468Z,11.50
2017-08-30T06:51:25.063Z,11.93
2017-08-30T06:51:57.590Z,10.90
2017-08-30T06:52:30.150Z,11.68
2017-08-30T06:53:02.689Z,11.80
2017-08-30T06:53:35.221Z,11.48
2017-08-30T06:54:07.792Z,11.10
2017-08-30T06:54:40.325Z,11.73
2017-08-30T06:55:12.866Z,10.95
2017-08-30T06:55:45.378Z,10.95
2017-08-30T06:56:17.904Z,10.77
2017-08-30T06:56:50.469Z,11.25
2017-08-30T06:57:23.011Z,10.30
2017-08-30T06:57:55.570Z,10.80
2017-08-30T06:58:28.133Z,11.20
2017-08-30T06:59:00.652Z,10.57
2017-08-30T06:59:33.203Z,10.98
2017-08-30T07:00:05.755Z,12.10
2017-08-30T07:00:38.720Z,10.02
2017-08-30T07:01:11.371Z,10.75
2017-08-30T07:01:43.873Z,10.27
2017-08-30T07:02:16.384Z,10.85
2017-08-30T07:02:48.938Z,10.85
2017-08-30T07:03:22.262Z,10.73
2017-08-30T07:03:54.822Z,11.25
2017-08-30T07:04:27.437Z,10.50
2017-08-30T07:05:00.007Z,11.25
2017-08-30T07:05:32.537Z,10.45
2017-08-30T07:06:05.034Z,9.93
2017-08-30T07:06:37.563Z,11.00
2017-08-30T07:07:10.111Z,10.52
2017-08-30T07:07:42.700Z,10.57
2017-08-30T07:08:15.212Z,10.27
2017-08-30T07:08:47.736Z,11.30
2017-08-30T07:09:20.270Z,11.02
2017-08-30T07:09:52.799Z,10.82
2017-08-30T07:10:25.366Z,10.52
2017-08-30T07:10:57.901Z,10.27
2017-08-30T07:11:30.436Z,10.52